Flight Track Log - Related Links

Times and Time Zones

All times are in EDT time to prevent confusion due to time zone crossing. See the DAL6234 flight status page for this flight to view local times or setup timezone preferences in your user account.

Time Position Orientation Groundspeed Altitude Reporting Facility
EDT Latitude Longitude Course Direction KTS MPH feet Rate Location/Type
Wed 08:17:22 PM 43.1075 -76.1375 262° West 192 221 1,200  Level Boston Center
Wed 08:17:52 PM 43.1044 -76.1658 262° West 182 209 2,500 2,452 Climbing Boston Center
Wed 08:18:55 PM 43.0603 -76.1775 191° South 240 276 5,000 2,133 Climbing Boston Center
Wed 08:19:22 PM 43.0344 -76.1331 128° Southeast 294 338 5,700 2,069 Climbing Boston Center
Wed 08:20:22 PM 42.9875 -76.0367 124° Southeast 313 360 8,000 2,331 Climbing Boston Center
Wed 08:21:23 PM 42.9453 -75.9206 116° Southeast 328 377 10,400 1,884 Climbing Boston Center
Wed 08:22:23 PM 42.8883 -75.8042 124° Southeast 346 398 11,800 1,438 Climbing Boston Center
Wed 08:23:24 PM 42.8214 -75.6731 125° Southeast 384 442 13,300 2,118 Climbing Boston Center
Wed 08:24:22 PM 42.7542 -75.5422 125° Southeast 416 479 16,000 2,550 Climbing Boston Center
Wed 08:25:24 PM 42.6928 -75.4147 123° Southeast 416 479 18,400 1,900 Climbing Boston Center
Wed 08:26:22 PM 42.6314 -75.2906 124° Southeast 422 486 19,800 1,169 Climbing Boston Center
Wed 08:27:22 PM 42.5597 -75.1547 126° Southeast 429 494 20,700 600 Climbing Boston Center
Wed 08:28:22 PM 42.4900 -75.0164 124° Southeast 440 506 21,000 150 Climbing Boston Center
Wed 08:29:22 PM 42.4158 -74.8756 125° Southeast 451 519 21,000  Level Boston Center
Wed 08:30:23 PM 42.3439 -74.7350 125° Southeast 456 525 21,000  Level Boston Center
Wed 08:31:24 PM 42.2694 -74.5892 125° Southeast 463 533 21,000 -443 Level Boston Center
Wed 08:32:25 PM 42.1931 -74.4494 126° Southeast 463 533 20,100 -1,008 Descending Boston Center
Wed 08:33:23 PM 42.1144 -74.2900 124° Southeast 463 533 19,000 -559 Descending Boston Center
Wed 08:34:23 PM 42.0072 -74.2114 151° Southeast 430 495 19,000 -793 Level Boston Center
Wed 08:35:24 PM 41.8997 -74.1472 156° South 430 495 17,400 -1,721 Descending Boston Center
Wed 08:36:25 PM 41.7986 -74.0886 157° South 415 478 15,500 -1,866 Descending Boston Center
Wed 08:37:23 PM 41.7014 -74.0361 158° South 383 441 13,700 -1,729 Descending Boston Center
Wed 08:38:23 PM 41.6103 -73.9839 157° South 367 422 12,100 -1,121 Descending Boston Center
Wed 08:40:00 PM 41.4895 -73.8637 156° South  Level FlightAware Approximate
Wed 08:42:28 PM 41.2833 -73.7500 217° Southwest 310 357 8,000  Level New York TRACON
Wed 08:43:28 PM 41.2167 -73.6833 143° Southeast 302 348 8,000 -862 Level New York TRACON
Wed 08:45:00 PM 41.0984 -73.5850 217° Southwest  Level FlightAware Approximate
Wed 08:47:00 PM 40.9380 -73.7286 217° Southwest  Level FlightAware Approximate
Wed 08:48:23 PM 40.9000 -73.7667 180° South 210 242 2,900  Level New York TRACON
Wed 08:50:00 PM 40.7827 -73.8667 180° South  Level FlightAware Approximate
Wed 08:51:29 PM 40.8000 -73.8500 180° South 137 158 400  Level New York TRACON
Wed 08:52:00 PM 40.7667 -73.8667 180° South  Level FlightAware Approximate
Wed 08:53:00 PM 40.7772 -73.8726 180° South  Level Estimated
Wed 08:53:00 PM 40.7667 -73.8667 180° South  Level FlightAware Approximate
Wed 09:00:00 PM 40.7772 -73.8726 180° South  Level Estimated
Wed 09:01:00 PM 40.7772 -73.8726 180° South  Level Estimated

Login

Don't have an account? Register now (free) for customized features, flight alerts, and more!